Time;durP1;ratioP1;P1;durP2;ratioP2;P2;SDS_P1;SDS_P2;PMS_P1;PMS_P2;Temp;Humidity;BMP_temperature;BMP_pressure;BME280_temperature;BME280_humidity;BME280_pressure;Samples;Min_cycle;Max_cycle;Signal;HPM_P1;HPM_P2
2021/01/12 00:03:10;;;;;;;3.85;1.17;;;7.40;99.90;;;;;;10358398;28;20470;-53
2021/01/12 00:08:31;;;;;;;4.38;0.98;;;7.40;99.90;;;;;;10364893;28;20038;-53
2021/01/12 00:13:52;;;;;;;2.30;1.05;;;7.40;99.90;;;;;;10364303;28;20041;-53
2021/01/12 00:19:13;;;;;;;1.73;0.88;;;7.50;99.90;;;;;;10364932;28;20066;-53
2021/01/12 00:24:35;;;;;;;7.82;1.40;;;7.40;99.90;;;;;;10363945;28;20049;-53
2021/01/12 00:29:56;;;;;;;1.75;0.77;;;7.40;99.90;;;;;;10366469;28;20037;-54
2021/01/12 00:35:18;;;;;;;5.00;1.05;;;7.40;99.90;;;;;;10365400;28;20069;-54
2021/01/12 00:40:39;;;;;;;4.40;1.75;;;7.40;99.90;;;;;;10368316;28;20378;-54
2021/01/12 00:46:00;;;;;;;3.42;0.60;;;7.40;99.90;;;;;;10366309;28;20038;-54
2021/01/12 00:51:21;;;;;;;0.93;0.45;;;7.40;99.90;;;;;;10368667;28;20080;-54
2021/01/12 00:56:42;;;;;;;1.75;0.88;;;7.30;99.90;;;;;;10367128;28;20437;-55
2021/01/12 01:02:05;;;;;;;2.47;0.93;;;7.40;99.90;;;;;;10369313;28;20045;-54
2021/01/12 01:13:44;;;;;;;2.53;0.93;;;7.40;99.90;;;;;;10361806;28;20049;-55
2021/01/12 01:19:06;;;;;;;1.67;0.70;;;7.50;99.90;;;;;;10382030;28;20560;-55
2021/01/12 01:24:27;;;;;;;2.55;0.80;;;7.40;99.90;;;;;;10366021;28;20136;-55
2021/01/12 01:29:48;;;;;;;1.63;0.70;;;7.50;99.90;;;;;;10367694;28;20045;-55
2021/01/12 01:35:10;;;;;;;2.97;1.30;;;7.50;99.90;;;;;;10364162;28;20469;-56
2021/01/12 01:40:31;;;;;;;2.47;1.05;;;7.50;99.90;;;;;;10369258;28;20511;-56
2021/01/12 01:45:53;;;;;;;2.75;1.92;;;7.60;99.90;;;;;;10367971;28;20046;-56
2021/01/12 01:51:15;;;;;;;1.92;1.15;;;7.60;99.90;;;;;;10366764;28;20038;-56
2021/01/12 01:56:36;;;;;;;3.58;1.20;;;7.70;99.90;;;;;;10366728;28;20091;-56
2021/01/12 02:01:57;;;;;;;5.88;1.33;;;7.70;99.90;;;;;;10378359;28;20167;-56
2021/01/12 02:07:20;;;;;;;1.98;0.68;;;7.80;99.90;;;;;;10373540;28;20037;-56
2021/01/12 02:12:47;;;;;;;12.57;1.08;;;7.90;99.90;;;;;;10364361;28;20060;-56
2021/01/12 02:18:08;;;;;;;7.18;2.88;;;8.00;99.90;;;;;;10365193;28;20032;-56
2021/01/12 02:23:34;;;;;;;9.52;1.55;;;8.00;99.90;;;;;;10363713;28;20037;-56
2021/01/12 02:28:55;;;;;;;1.80;0.50;;;8.10;99.90;;;;;;10365142;28;20597;-56
2021/01/12 02:34:17;;;;;;;0.73;0.38;;;8.10;99.90;;;;;;10375775;28;20037;-56
2021/01/12 02:39:39;;;;;;;0.93;0.40;;;8.20;99.90;;;;;;10363748;28;20417;-56
2021/01/12 02:45:00;;;;;;;2.70;0.77;;;8.20;99.90;;;;;;10364371;28;20034;-56
2021/01/12 02:50:21;;;;;;;6.80;1.52;;;8.30;99.90;;;;;;10376182;28;20052;-56
2021/01/12 02:55:42;;;;;;;6.32;0.70;;;8.20;99.90;;;;;;10364171;28;20631;-56
2021/01/12 03:01:04;;;;;;;4.95;0.88;;;8.30;99.90;;;;;;10363052;28;20049;-55
2021/01/12 03:06:25;;;;;;;2.83;0.40;;;8.20;99.90;;;;;;10365424;28;20126;-56
2021/01/12 03:11:53;;;;;;;1.83;0.73;;;8.20;99.90;;;;;;10365445;28;20745;-55
2021/01/12 03:17:14;;;;;;;4.28;0.93;;;8.20;99.90;;;;;;10370316;28;20044;-56
2021/01/12 03:22:35;;;;;;;2.30;0.60;;;8.20;99.90;;;;;;10363752;28;20153;-55
2021/01/12 03:27:56;;;;;;;1.27;0.45;;;8.10;99.90;;;;;;10361019;28;20050;-54
2021/01/12 03:33:17;;;;;;;2.90;0.50;;;8.10;99.90;;;;;;10361539;28;20445;-55
2021/01/12 03:38:38;;;;;;;1.50;0.63;;;8.30;99.90;;;;;;10360631;28;20133;-54
2021/01/12 03:44:00;;;;;;;2.60;0.85;;;8.30;99.90;;;;;;10366063;28;20144;-54
2021/01/12 03:49:23;;;;;;;2.45;0.47;;;8.20;99.90;;;;;;10363795;28;20738;-55
2021/01/12 03:54:44;;;;;;;1.70;0.70;;;8.30;99.90;;;;;;10362329;28;20052;-54
2021/01/12 04:00:06;;;;;;;0.35;0.10;;;8.30;99.90;;;;;;10364661;28;20041;-54
2021/01/12 04:05:30;;;;;;;1.20;0.40;;;8.30;99.90;;;;;;10359666;28;20670;-53
2021/01/12 04:10:51;;;;;;;0.50;0.40;;;8.30;99.90;;;;;;10359509;28;20041;-54
2021/01/12 04:16:12;;;;;;;0.85;0.45;;;8.40;99.90;;;;;;10362063;28;20045;-54
2021/01/12 04:21:33;;;;;;;3.45;0.40;;;8.40;99.90;;;;;;10358821;28;20038;-54
2021/01/12 04:26:54;;;;;;;5.47;0.93;;;8.30;99.90;;;;;;10360890;28;20136;-54
2021/01/12 04:32:15;;;;;;;1.00;0.30;;;8.30;99.90;;;;;;10361611;28;20038;-54
2021/01/12 04:37:36;;;;;;;1.70;0.57;;;8.40;99.90;;;;;;10370657;28;20042;-53
2021/01/12 04:42:58;;;;;;;0.68;0.32;;;8.40;99.90;;;;;;10365211;28;20069;-53
2021/01/12 04:48:19;;;;;;;0.88;0.28;;;8.50;99.90;;;;;;10360782;28;20389;-52
2021/01/12 04:53:46;;;;;;;1.45;0.47;;;8.50;99.90;;;;;;10364238;28;20049;-52
2021/01/12 04:59:07;;;;;;;4.78;0.63;;;8.50;99.90;;;;;;10367708;28;20048;-53
2021/01/12 05:04:28;;;;;;;1.48;0.43;;;8.60;99.90;;;;;;10368319;28;20046;-52
2021/01/12 05:09:49;;;;;;;0.98;0.45;;;8.60;99.90;;;;;;10366169;28;20041;-52
2021/01/12 05:15:11;;;;;;;0.82;0.20;;;8.60;99.90;;;;;;10369152;28;20042;-53
2021/01/12 05:20:48;;;;;;;7.53;0.90;;;8.60;99.90;;;;;;10365613;28;20593;-53
2021/01/12 05:26:12;;;;;;;3.97;0.15;;;8.60;99.90;;;;;;10367541;28;20042;-53
2021/01/12 05:31:35;;;;;;;4.85;0.63;;;8.40;99.90;;;;;;10366256;28;20065;-53
2021/01/12 05:37:00;;;;;;;1.80;0.20;;;8.30;99.90;;;;;;10379080;28;20180;-53
2021/01/12 05:42:21;;;;;;;2.60;0.43;;;8.30;99.90;;;;;;10369053;28;20118;-53
2021/01/12 05:47:42;;;;;;;2.85;0.93;;;8.30;99.90;;;;;;10367720;28;20041;-54
2021/01/12 05:53:16;;;;;;;1.80;0.20;;;8.30;99.90;;;;;;10365384;28;20052;-54
2021/01/12 05:58:47;;;;;;;0.57;0.10;;;8.10;99.90;;;;;;10366851;28;20073;-55
2021/01/12 06:04:10;;;;;;;4.43;0.43;;;8.00;99.90;;;;;;10365594;28;20088;-55
2021/01/12 06:09:31;;;;;;;0.70;0.15;;;8.00;99.90;;;;;;10361203;28;20032;-55
2021/01/12 06:14:58;;;;;;;3.95;0.40;;;8.10;99.90;;;;;;10366371;28;20335;-55
2021/01/12 06:20:26;;;;;;;0.95;0.38;;;8.00;99.90;;;;;;10366071;28;20080;-55
2021/01/12 06:25:48;;;;;;;0.17;0.00;;;8.00;99.90;;;;;;10364498;28;20946;-56
2021/01/12 06:31:12;;;;;;;0.28;0.15;;;7.90;99.90;;;;;;10365156;28;20385;-56
2021/01/12 06:36:40;;;;;;;1.02;0.63;;;7.90;99.90;;;;;;10363588;28;20045;-56
2021/01/12 06:42:04;;;;;;;0.88;0.10;;;7.80;99.90;;;;;;10364796;28;20125;-56
2021/01/12 06:47:30;;;;;;;0.65;0.20;;;7.80;99.90;;;;;;10363417;28;20041;-56
2021/01/12 06:52:51;;;;;;;1.88;1.67;;;7.70;99.90;;;;;;10363339;28;20033;-56
2021/01/12 06:58:12;;;;;;;0.17;0.17;;;7.60;99.90;;;;;;10372755;28;20034;-55
2021/01/12 07:03:33;;;;;;;0.32;0.20;;;7.70;99.90;;;;;;10362202;28;20053;-56
2021/01/12 07:08:59;;;;;;;2.60;0.10;;;7.70;99.90;;;;;;10362689;28;20045;-56
2021/01/12 07:14:24;;;;;;;2.53;0.30;;;7.60;99.90;;;;;;10363067;28;20072;-55
2021/01/12 07:19:46;;;;;;;0.38;0.00;;;7.50;99.90;;;;;;10360778;28;20060;-55
2021/01/12 07:25:10;;;;;;;0.77;0.20;;;7.50;99.90;;;;;;10360348;28;20029;-55
2021/01/12 07:30:32;;;;;;;1.08;0.30;;;7.50;99.90;;;;;;10359493;28;20041;-55
2021/01/12 07:35:55;;;;;;;0.73;0.30;;;7.50;99.90;;;;;;10361525;28;20046;-55
2021/01/12 07:41:18;;;;;;;1.17;0.25;;;7.50;99.90;;;;;;10361445;28;20429;-55
2021/01/12 07:46:39;;;;;;;0.90;0.40;;;7.40;99.90;;;;;;10361040;28;20106;-55
2021/01/12 07:52:01;;;;;;;0.77;0.20;;;7.40;99.90;;;;;;10360244;28;20037;-56
2021/01/12 07:57:22;;;;;;;1.45;0.38;;;7.30;99.90;;;;;;10362730;28;20069;-55
2021/01/12 08:02:48;;;;;;;0.90;0.30;;;7.30;99.90;;;;;;10361965;28;20121;-55
2021/01/12 08:08:10;;;;;;;6.43;1.85;;;7.20;99.90;;;;;;10366472;28;20037;-55
2021/01/12 08:13:31;;;;;;;1.60;0.57;;;7.10;99.90;;;;;;10360427;28;20125;-55
2021/01/12 08:18:56;;;;;;;1.08;0.20;;;7.00;99.90;;;;;;10376513;28;20113;-55
2021/01/12 08:24:26;;;;;;;1.02;0.10;;;7.00;99.90;;;;;;10363727;28;20038;-55
2021/01/12 08:29:47;;;;;;;0.82;0.30;;;6.90;99.90;;;;;;10367506;28;20064;-55
2021/01/12 08:35:13;;;;;;;0.80;0.43;;;6.80;99.90;;;;;;10369099;28;20149;-55
2021/01/12 08:40:35;;;;;;;1.13;0.40;;;6.80;99.90;;;;;;10371873;28;20046;-55
2021/01/12 08:46:00;;;;;;;2.42;1.02;;;6.80;99.90;;;;;;10372745;28;20037;-55
2021/01/12 08:51:22;;;;;;;2.28;0.38;;;6.80;99.90;;;;;;10366816;28;20042;-55
2021/01/12 08:56:53;;;;;;;0.95;0.20;;;6.80;99.90;;;;;;10370661;28;20050;-55
2021/01/12 09:02:18;;;;;;;0.30;0.13;;;6.70;99.90;;;;;;10368282;28;20113;-55
2021/01/12 09:07:40;;;;;;;0.88;0.05;;;6.70;99.90;;;;;;10368418;28;20064;-55
2021/01/12 09:13:01;;;;;;;0.73;0.30;;;6.60;99.90;;;;;;10370137;28;20034;-55
2021/01/12 09:18:26;;;;;;;10.05;0.32;;;6.60;99.90;;;;;;10367738;28;20395;-55
2021/01/12 09:23:47;;;;;;;1.33;0.47;;;6.60;99.90;;;;;;10366286;28;20030;-55
2021/01/12 09:29:08;;;;;;;0.35;0.22;;;6.70;99.90;;;;;;10367392;28;20121;-55
2021/01/12 09:34:30;;;;;;;0.10;0.00;;;6.60;99.90;;;;;;10367635;28;20147;-56
2021/01/12 09:39:56;;;;;;;1.98;0.10;;;6.50;99.90;;;;;;10376270;28;20050;-55
2021/01/12 09:45:18;;;;;;;0.73;0.30;;;6.60;99.90;;;;;;10368755;28;20038;-55
2021/01/12 09:50:39;;;;;;;0.22;0.10;;;6.60;99.90;;;;;;10367534;28;20091;-55
2021/01/12 09:56:01;;;;;;;0.32;0.03;;;6.70;99.90;;;;;;10367109;28;20239;-55
2021/01/12 10:01:22;;;;;;;2.17;0.20;;;6.70;99.90;;;;;;10366577;28;20060;-55
2021/01/12 10:06:43;;;;;;;0.82;0.30;;;6.80;99.90;;;;;;10367585;28;20048;-55
2021/01/12 10:12:04;;;;;;;0.20;0.20;;;6.70;99.90;;;;;;10368084;28;20037;-55
2021/01/12 10:17:25;;;;;;;0.00;0.00;;;6.50;99.90;;;;;;10367688;28;20128;-55
2021/01/12 10:22:46;;;;;;;1.17;0.22;;;6.40;99.90;;;;;;10364091;28;20136;-55
2021/01/12 10:28:07;;;;;;;2.30;0.15;;;6.30;99.90;;;;;;10365309;28;20037;-55
2021/01/12 10:33:28;;;;;;;0.70;0.10;;;6.50;99.90;;;;;;10367646;28;20034;-55
2021/01/12 10:38:49;;;;;;;0.43;0.10;;;6.80;99.90;;;;;;10378439;28;20389;-55
2021/01/12 10:44:10;;;;;;;0.10;0.00;;;7.40;99.90;;;;;;10363684;28;20506;-55
2021/01/12 10:49:32;;;;;;;6.28;0.80;;;7.40;99.90;;;;;;10363885;28;20037;-55
2021/01/12 10:54:52;;;;;;;0.00;0.00;;;7.10;99.90;;;;;;10364349;28;20037;-55
2021/01/12 11:00:15;;;;;;;0.20;0.20;;;7.50;99.90;;;;;;10366310;28;20101;-55
2021/01/12 11:05:36;;;;;;;0.43;0.22;;;8.10;99.90;;;;;;10364753;28;20041;-55
2021/01/12 11:10:57;;;;;;;0.38;0.10;;;8.60;99.90;;;;;;10365245;28;20206;-55
2021/01/12 11:16:19;;;;;;;1.27;0.45;;;9.10;99.90;;;;;;10364787;28;20052;-55
2021/01/12 11:21:45;;;;;;;0.45;0.20;;;9.70;99.90;;;;;;10362567;28;20029;-55
2021/01/12 11:27:07;;;;;;;1.15;0.20;;;9.80;99.90;;;;;;10363568;28;20677;-55
2021/01/12 11:32:32;;;;;;;0.60;0.10;;;10.60;99.90;;;;;;10363162;28;20046;-54
2021/01/12 11:37:53;;;;;;;3.83;0.10;;;10.30;99.90;;;;;;10364389;28;20050;-54
2021/01/12 11:43:14;;;;;;;0.60;0.40;;;9.80;99.90;;;;;;10361290;28;20521;-55
2021/01/12 11:48:37;;;;;;;0.28;0.05;;;9.20;99.90;;;;;;10363983;28;20498;-55
2021/01/12 11:53:58;;;;;;;1.88;0.30;;;10.00;99.90;;;;;;10361489;28;20799;-54
2021/01/12 11:59:19;;;;;;;5.25;0.10;;;11.30;99.90;;;;;;10365341;28;20052;-54
2021/01/12 12:04:40;;;;;;;1.05;0.82;;;11.90;99.90;;;;;;10365222;28;20474;-54
2021/01/12 12:10:01;;;;;;;2.00;0.15;;;12.70;99.90;;;;;;10362652;28;20044;-54
2021/01/12 12:15:24;;;;;;;0.98;0.25;;;13.20;99.90;;;;;;10365357;28;20085;-54
2021/01/12 12:20:45;;;;;;;0.73;0.28;;;13.30;99.90;;;;;;10356488;28;20545;-54
2021/01/12 12:26:16;;;;;;;1.08;0.35;;;13.70;99.90;;;;;;10361435;28;20193;-54
2021/01/12 12:31:37;;;;;;;0.85;0.03;;;13.60;97.60;;;;;;10357568;28;20038;-53
2021/01/12 12:36:58;;;;;;;0.43;0.00;;;13.20;97.30;;;;;;10361775;28;20046;-54
2021/01/12 12:42:19;;;;;;;0.32;0.00;;;13.80;99.90;;;;;;10357999;28;20045;-54
2021/01/12 12:47:41;;;;;;;0.10;0.00;;;14.40;99.00;;;;;;10359604;28;20121;-54
2021/01/12 12:53:02;;;;;;;1.38;0.25;;;14.70;98.20;;;;;;10364113;28;20054;-54
2021/01/12 12:58:24;;;;;;;2.90;0.10;;;15.00;96.30;;;;;;10360206;28;20042;-54
2021/01/12 13:03:45;;;;;;;0.40;0.13;;;15.30;91.40;;;;;;10368302;28;20108;-54
2021/01/12 13:09:08;;;;;;;2.05;0.63;;;15.30;93.10;;;;;;10363135;28;20049;-54
2021/01/12 13:14:29;;;;;;;0.10;0.00;;;15.30;92.90;;;;;;10372122;28;20046;-54
2021/01/12 13:20:01;;;;;;;0.73;0.10;;;13.80;98.00;;;;;;10367829;28;20046;-53
2021/01/12 13:25:23;;;;;;;0.00;0.00;;;11.30;99.90;;;;;;10368767;28;20708;-53
2021/01/12 13:30:45;;;;;;;0.70;0.10;;;10.10;99.90;;;;;;10372280;28;20118;-53
2021/01/12 13:36:06;;;;;;;0.32;0.15;;;11.40;99.90;;;;;;10371163;28;20084;-53
2021/01/12 13:41:34;;;;;;;0.57;0.10;;;11.40;99.90;;;;;;10368254;28;20042;-54
2021/01/12 13:46:55;;;;;;;0.77;0.13;;;11.10;99.90;;;;;;10366536;28;20045;-53
2021/01/12 13:52:20;;;;;;;1.95;0.47;;;11.10;99.90;;;;;;10368448;28;20546;-53
2021/01/12 13:58:00;;;;;;;0.90;0.45;;;10.70;99.90;;;;;;10369287;28;20061;-53
2021/01/12 14:03:22;;;;;;;0.32;0.10;;;10.00;99.90;;;;;;10367986;28;20037;-53
2021/01/12 14:08:43;;;;;;;2.08;0.30;;;9.50;99.90;;;;;;10369810;28;20441;-53
2021/01/12 14:14:04;;;;;;;0.68;0.08;;;9.10;99.90;;;;;;10368909;28;20037;-53
2021/01/12 14:19:28;;;;;;;0.57;0.30;;;8.60;99.90;;;;;;10373600;28;20140;-53
2021/01/12 14:24:51;;;;;;;1.98;1.10;;;8.10;99.90;;;;;;10366235;28;20390;-53
2021/01/12 14:30:14;;;;;;;0.63;0.10;;;7.80;99.90;;;;;;10367212;28;20460;-53
2021/01/12 14:35:35;;;;;;;0.15;0.00;;;6.90;99.90;;;;;;10365724;28;20061;-54
2021/01/12 14:40:57;;;;;;;0.05;0.00;;;6.70;99.90;;;;;;10365217;28;20038;-54
2021/01/12 14:46:25;;;;;;;7.70;0.85;;;6.60;99.90;;;;;;10366613;28;20448;-53
2021/01/12 14:51:47;;;;;;;4.30;0.80;;;6.50;99.90;;;;;;10368779;28;20034;-54
2021/01/12 14:57:08;;;;;;;0.65;0.20;;;6.40;99.90;;;;;;10374257;28;20087;-53
2021/01/12 15:02:29;;;;;;;5.95;0.38;;;6.40;99.90;;;;;;10366447;28;20072;-53
2021/01/12 15:07:50;;;;;;;2.17;0.15;;;6.40;99.90;;;;;;10364904;28;20048;-54
2021/01/12 15:13:11;;;;;;;1.45;0.30;;;6.70;99.90;;;;;;10374268;28;20703;-53
2021/01/12 15:18:32;;;;;;;2.92;0.30;;;6.60;99.90;;;;;;10366261;28;20034;-54
2021/01/12 15:23:53;;;;;;;0.22;0.15;;;6.50;99.90;;;;;;10363499;28;20060;-54
2021/01/12 15:29:15;;;;;;;4.30;0.77;;;6.20;99.90;;;;;;10367567;28;20018;-54
2021/01/12 15:34:36;;;;;;;0.35;0.20;;;6.20;99.90;;;;;;10362357;28;21027;-54
2021/01/12 15:39:57;;;;;;;4.45;0.45;;;6.10;99.90;;;;;;10367538;28;20048;-54
2021/01/12 15:45:19;;;;;;;0.50;0.25;;;6.00;99.90;;;;;;10367058;28;20026;-54
2021/01/12 15:50:40;;;;;;;0.20;0.20;;;5.90;99.90;;;;;;10362727;28;20463;-54
2021/01/12 15:56:01;;;;;;;26.00;1.00;;;5.90;99.90;;;;;;10358827;28;20048;-54
2021/01/12 16:01:22;;;;;;;3.03;0.30;;;5.80;99.90;;;;;;10361826;28;20045;-54
2021/01/12 16:06:47;;;;;;;2.97;1.55;;;5.80;99.90;;;;;;10361951;28;20029;-54
2021/01/12 16:12:12;;;;;;;6.22;0.40;;;5.70;99.90;;;;;;10369196;28;20335;-54
2021/01/12 16:17:37;;;;;;;0.65;0.13;;;5.70;99.90;;;;;;10361781;28;20101;-54
2021/01/12 16:22:59;;;;;;;3.03;0.13;;;5.60;99.90;;;;;;10366400;28;20065;-54
2021/01/12 16:28:21;;;;;;;0.73;0.20;;;5.60;99.90;;;;;;10361579;28;20049;-54
2021/01/12 16:33:42;;;;;;;0.70;0.30;;;5.50;99.90;;;;;;10363835;28;20393;-54
2021/01/12 16:39:03;;;;;;;1.95;0.10;;;5.40;99.90;;;;;;10357396;28;20042;-54
2021/01/12 16:44:25;;;;;;;0.17;0.03;;;5.40;99.90;;;;;;10363080;28;20700;-54
2021/01/12 16:49:46;;;;;;;0.45;0.20;;;5.30;99.90;;;;;;10369573;28;20482;-54
2021/01/12 16:55:08;;;;;;;3.92;0.20;;;5.30;99.90;;;;;;10369317;28;20137;-54
2021/01/12 17:00:32;;;;;;;0.43;0.10;;;5.10;99.90;;;;;;10372005;28;20036;-54
2021/01/12 17:05:53;;;;;;;0.03;0.00;;;5.00;99.90;;;;;;10370025;28;20041;-54
2021/01/12 17:11:15;;;;;;;0.65;0.22;;;4.80;99.90;;;;;;10372783;28;20463;-54
2021/01/12 17:16:43;;;;;;;0.85;0.10;;;4.60;99.90;;;;;;10367081;28;20042;-54
2021/01/12 17:22:12;;;;;;;0.90;0.20;;;4.40;99.90;;;;;;10364589;28;20037;-54
2021/01/12 17:27:38;;;;;;;0.00;0.00;;;4.40;99.90;;;;;;10368429;28;20531;-54
2021/01/12 17:33:02;;;;;;;1.75;0.20;;;4.20;99.90;;;;;;10369459;28;20049;-54
2021/01/12 17:38:27;;;;;;;3.72;0.60;;;4.20;99.90;;;;;;10365026;28;20076;-54
2021/01/12 17:43:48;;;;;;;0.85;0.20;;;4.10;99.90;;;;;;10365955;28;20029;-54
2021/01/12 17:49:09;;;;;;;1.08;0.20;;;4.00;99.90;;;;;;10363155;28;20088;-54
2021/01/12 17:54:34;;;;;;;0.20;0.10;;;4.00;99.90;;;;;;10359833;28;20049;-54
2021/01/12 17:59:55;;;;;;;6.13;0.75;;;3.80;99.90;;;;;;10358009;28;20042;-54
2021/01/12 18:05:19;;;;;;;2.17;0.88;;;3.60;99.90;;;;;;10365033;28;20100;-54
2021/01/12 18:10:43;;;;;;;0.70;0.15;;;3.60;99.90;;;;;;10361158;28;20500;-54
2021/01/12 18:16:05;;;;;;;0.38;0.20;;;3.60;99.90;;;;;;10359347;28;20037;-54
2021/01/12 18:21:32;;;;;;;1.05;0.30;;;3.40;99.90;;;;;;10362719;28;20123;-53
2021/01/12 18:26:53;;;;;;;0.38;0.20;;;3.40;99.90;;;;;;10363180;28;20681;-54
2021/01/12 18:32:15;;;;;;;3.92;0.75;;;3.30;99.90;;;;;;10361290;28;20049;-54
2021/01/12 18:37:37;;;;;;;6.57;0.88;;;3.20;99.90;;;;;;10360041;28;20132;-54
2021/01/12 18:42:58;;;;;;;1.13;0.43;;;3.20;99.90;;;;;;10363340;28;20045;-54
2021/01/12 18:48:19;;;;;;;0.80;0.50;;;3.10;99.90;;;;;;10365045;28;20044;-54
2021/01/12 18:53:41;;;;;;;2.55;0.52;;;3.10;99.90;;;;;;10358604;28;20045;-54
2021/01/12 18:59:02;;;;;;;1.70;0.68;;;2.90;99.90;;;;;;10359113;28;20042;-54
2021/01/12 19:04:23;;;;;;;1.92;0.73;;;2.80;99.90;;;;;;10359763;28;20115;-53
2021/01/12 19:09:44;;;;;;;3.35;1.65;;;2.70;99.90;;;;;;10360246;28;20041;-54
2021/01/12 19:15:06;;;;;;;0.57;0.30;;;2.70;99.90;;;;;;10362697;28;20147;-53
2021/01/12 19:20:28;;;;;;;1.02;0.30;;;2.70;99.90;;;;;;10372517;28;20041;-53
2021/01/12 19:25:49;;;;;;;0.55;0.30;;;2.60;99.90;;;;;;10363686;28;20125;-53
2021/01/12 19:31:11;;;;;;;1.63;0.85;;;2.60;99.90;;;;;;10363641;28;20041;-53
2021/01/12 19:36:35;;;;;;;1.17;0.30;;;2.50;99.90;;;;;;10356370;28;20088;-54
2021/01/12 19:41:58;;;;;;;1.73;0.63;;;2.50;99.90;;;;;;10360196;28;20463;-53
2021/01/12 19:47:19;;;;;;;1.98;0.68;;;2.40;99.90;;;;;;10356877;28;20455;-54
2021/01/12 19:52:43;;;;;;;0.88;0.52;;;2.40;99.90;;;;;;10355833;28;20045;-54
2021/01/12 19:58:04;;;;;;;4.25;0.73;;;2.40;99.90;;;;;;10360616;28;20855;-53
2021/01/12 20:03:25;;;;;;;3.08;0.95;;;2.40;99.90;;;;;;10357177;28;20073;-54
2021/01/12 20:08:46;;;;;;;0.20;0.10;;;2.40;99.90;;;;;;10361632;28;20846;-53
2021/01/12 20:14:09;;;;;;;3.65;0.40;;;2.40;99.90;;;;;;10358551;28;20052;-53
2021/01/12 20:19:30;;;;;;;0.85;0.60;;;2.40;99.90;;;;;;10359167;28;20128;-53
2021/01/12 20:24:53;;;;;;;1.58;0.40;;;2.30;99.90;;;;;;10365456;28;20406;-54
2021/01/12 20:30:14;;;;;;;0.77;0.45;;;2.30;99.90;;;;;;10365521;28;20037;-53
2021/01/12 20:35:42;;;;;;;0.77;0.32;;;2.40;99.90;;;;;;10369675;28;20082;-54
2021/01/12 20:41:08;;;;;;;0.38;0.20;;;2.40;99.90;;;;;;10366359;28;20137;-54
2021/01/12 20:46:32;;;;;;;0.57;0.38;;;2.30;99.90;;;;;;10364761;28;20121;-54
2021/01/12 20:51:54;;;;;;;1.55;1.45;;;2.30;99.90;;;;;;10368109;28;20124;-54
2021/01/12 20:57:16;;;;;;;0.90;0.20;;;2.20;99.90;;;;;;10372106;28;20048;-54
2021/01/12 21:02:37;;;;;;;0.30;0.20;;;2.10;99.90;;;;;;10377313;28;20037;-53
2021/01/12 21:08:02;;;;;;;0.68;0.38;;;2.10;99.90;;;;;;10363050;28;20053;-53
2021/01/12 21:13:23;;;;;;;0.32;0.10;;;2.10;99.90;;;;;;10362635;28;20119;-53
2021/01/12 21:18:44;;;;;;;0.20;0.15;;;2.10;99.90;;;;;;10361424;28;20412;-54
2021/01/12 21:24:07;;;;;;;0.20;0.15;;;2.10;99.90;;;;;;10366582;28;20379;-54
2021/01/12 21:29:28;;;;;;;1.58;0.20;;;2.10;99.90;;;;;;10368377;28;20041;-53
2021/01/12 21:34:49;;;;;;;0.20;0.10;;;2.10;99.90;;;;;;10370149;28;20088;-53
2021/01/12 21:40:11;;;;;;;0.52;0.30;;;2.10;99.90;;;;;;10366657;28;20050;-53
2021/01/12 21:45:32;;;;;;;1.77;0.17;;;2.20;99.90;;;;;;10386623;28;20640;-54
2021/01/12 21:50:53;;;;;;;2.05;0.30;;;2.30;99.90;;;;;;10369482;28;20060;-53
2021/01/12 21:56:14;;;;;;;0.38;0.30;;;2.30;99.90;;;;;;10365620;28;20091;-54
2021/01/12 22:01:35;;;;;;;2.10;0.63;;;2.30;99.90;;;;;;10367038;28;20049;-54
2021/01/12 22:06:56;;;;;;;0.75;0.20;;;2.20;99.90;;;;;;10365834;28;20080;-54
2021/01/12 22:12:18;;;;;;;0.50;0.17;;;2.00;99.90;;;;;;10365841;28;20195;-54
2021/01/12 22:17:49;;;;;;;5.00;0.28;;;2.00;99.90;;;;;;10363036;28;20046;-54
2021/01/12 22:23:10;;;;;;;0.82;0.40;;;1.90;99.90;;;;;;10366838;28;20121;-54
2021/01/12 22:28:31;;;;;;;2.30;0.52;;;1.90;99.90;;;;;;10361468;28;20040;-54
2021/01/12 22:33:53;;;;;;;0.82;0.50;;;1.80;99.90;;;;;;10365753;28;20045;-53
2021/01/12 22:39:14;;;;;;;0.17;0.10;;;1.80;99.90;;;;;;10364174;28;20049;-54
2021/01/12 22:44:37;;;;;;;0.10;0.05;;;1.70;99.90;;;;;;10362523;28;20056;-53
2021/01/12 22:49:58;;;;;;;0.57;0.20;;;1.70;99.90;;;;;;10369068;28;20041;-54
2021/01/12 22:55:19;;;;;;;0.47;0.10;;;1.60;99.90;;;;;;10362492;28;20064;-54
2021/01/12 23:00:40;;;;;;;2.58;0.32;;;1.60;99.90;;;;;;10361939;28;20045;-54
2021/01/12 23:06:01;;;;;;;0.52;0.30;;;1.60;99.90;;;;;;10361560;28;20505;-53
2021/01/12 23:11:22;;;;;;;0.35;0.05;;;1.50;99.90;;;;;;10364194;28;20080;-53
2021/01/12 23:16:43;;;;;;;2.53;0.38;;;1.50;99.90;;;;;;10360955;28;20042;-54
2021/01/12 23:22:04;;;;;;;2.28;0.13;;;1.50;99.90;;;;;;10357267;28;20100;-54
2021/01/12 23:27:25;;;;;;;1.52;0.40;;;1.60;99.90;;;;;;10363242;28;20786;-54
2021/01/12 23:32:47;;;;;;;8.48;0.17;;;1.60;99.90;;;;;;10360947;28;20038;-54
2021/01/12 23:38:09;;;;;;;0.20;0.10;;;1.50;99.90;;;;;;10357937;28;20038;-53
2021/01/12 23:43:30;;;;;;;0.00;0.00;;;1.50;99.90;;;;;;10360921;28;20060;-53
2021/01/12 23:48:51;;;;;;;9.23;0.20;;;1.60;99.90;;;;;;10359656;28;20572;-53
2021/01/12 23:54:13;;;;;;;0.20;0.17;;;1.60;99.90;;;;;;10359450;28;20078;-54
2021/01/12 23:59:34;;;;;;;0.28;0.15;;;1.70;99.90;;;;;;10359281;28;20398;-53
